createdAt,value
2018-11-29T00:01:03.585Z,2.33
2018-11-29T00:06:06.773Z,2.63
2018-11-29T00:11:09.960Z,2.53
2018-11-29T00:16:13.575Z,2.75
2018-11-29T00:21:16.801Z,2.20
2018-11-29T00:26:19.978Z,2.13
2018-11-29T00:31:23.225Z,2.00
2018-11-29T00:36:26.426Z,2.40
2018-11-29T00:41:29.654Z,2.40
2018-11-29T00:46:32.841Z,2.17
2018-11-29T00:51:36.098Z,2.43
2018-11-29T00:56:39.269Z,2.00
2018-11-29T01:01:47.809Z,2.25
2018-11-29T01:06:51.006Z,2.43
2018-11-29T01:11:54.230Z,2.40
2018-11-29T01:16:57.430Z,2.20
2018-11-29T01:22:00.601Z,2.47
2018-11-29T01:27:03.850Z,2.17
2018-11-29T01:32:07.053Z,2.43
2018-11-29T01:37:10.263Z,2.17
2018-11-29T01:42:13.481Z,2.63
2018-11-29T01:47:16.667Z,2.60
2018-11-29T01:52:19.886Z,2.77
2018-11-29T01:57:23.106Z,2.10
2018-11-29T02:02:26.319Z,2.60
2018-11-29T02:07:29.521Z,2.07
2018-11-29T02:12:32.738Z,2.20
2018-11-29T02:17:36.142Z,2.20
2018-11-29T02:22:39.355Z,2.63
2018-11-29T02:27:42.553Z,2.25
2018-11-29T02:32:45.877Z,2.13
2018-11-29T02:37:49.061Z,2.27
2018-11-29T02:42:52.641Z,2.13
2018-11-29T02:47:55.815Z,2.73
2018-11-29T02:52:58.998Z,2.23
2018-11-29T02:58:02.313Z,2.63
2018-11-29T03:03:05.738Z,2.23
2018-11-29T03:08:08.942Z,2.63
2018-11-29T03:13:12.149Z,2.27
2018-11-29T03:18:15.370Z,2.50
2018-11-29T03:23:18.275Z,2.50
2018-11-29T03:28:21.486Z,2.40
2018-11-29T03:33:24.671Z,2.40
2018-11-29T03:38:27.889Z,2.27
2018-11-29T03:43:31.060Z,2.17
2018-11-29T03:48:34.306Z,2.17
2018-11-29T03:53:37.517Z,2.20
2018-11-29T03:58:40.730Z,2.50
2018-11-29T04:03:43.928Z,2.77
2018-11-29T04:08:47.146Z,2.40
2018-11-29T04:13:50.348Z,2.45
2018-11-29T04:18:53.596Z,2.43
2018-11-29T04:23:56.777Z,2.60
2018-11-29T04:28:59.999Z,2.30
2018-11-29T04:34:03.186Z,2.30
2018-11-29T04:39:07.550Z,2.63
2018-11-29T04:44:10.751Z,2.57
2018-11-29T04:49:14.146Z,2.43
2018-11-29T04:54:17.350Z,1.80
2018-11-29T04:59:20.575Z,2.30
2018-11-29T05:04:23.770Z,2.47
2018-11-29T05:09:26.954Z,2.10
2018-11-29T05:14:30.191Z,2.33
2018-11-29T05:19:34.194Z,2.10
2018-11-29T05:24:37.406Z,2.03
2018-11-29T05:29:40.615Z,2.20
2018-11-29T05:34:43.826Z,2.40
2018-11-29T05:39:46.977Z,2.60
2018-11-29T05:44:50.230Z,1.83
2018-11-29T05:49:53.394Z,2.23
2018-11-29T05:54:56.557Z,2.00
2018-11-29T05:59:59.717Z,2.20
2018-11-29T06:05:03.620Z,2.30
2018-11-29T06:10:06.805Z,1.97
2018-11-29T06:15:11.037Z,2.37
2018-11-29T06:20:15.470Z,2.05
2018-11-29T06:25:18.667Z,1.63
2018-11-29T06:30:22.605Z,1.83
2018-11-29T06:35:25.793Z,1.93
2018-11-29T06:40:29.011Z,1.77
2018-11-29T06:45:32.224Z,1.60
2018-11-29T06:50:35.433Z,1.97
2018-11-29T06:55:38.634Z,2.07
2018-11-29T07:00:41.794Z,1.83
2018-11-29T07:05:44.954Z,1.87
2018-11-29T07:10:48.159Z,1.73
2018-11-29T07:15:51.361Z,1.90
2018-11-29T07:21:06.002Z,2.20
2018-11-29T07:26:09.158Z,2.20
2018-11-29T07:31:12.371Z,2.00
2018-11-29T07:36:15.573Z,2.00
2018-11-29T07:41:18.781Z,2.10
2018-11-29T07:46:21.937Z,1.80
2018-11-29T07:51:25.092Z,5.73
2018-11-29T07:56:28.257Z,8.83
2018-11-29T08:01:31.430Z,9.03
2018-11-29T08:06:34.821Z,8.20
2018-11-29T08:11:38.042Z,7.13
2018-11-29T08:16:41.234Z,6.17
2018-11-29T08:21:44.447Z,5.73
2018-11-29T08:26:47.657Z,5.73
2018-11-29T08:31:50.854Z,5.30
2018-11-29T08:36:54.064Z,4.97
2018-11-29T08:41:57.278Z,4.97
2018-11-29T08:47:00.489Z,4.20
2018-11-29T08:52:03.646Z,4.83
2018-11-29T08:57:06.810Z,4.40
2018-11-29T09:02:10.011Z,4.13
2018-11-29T09:07:13.221Z,4.60
2018-11-29T09:12:16.427Z,5.10
2018-11-29T09:17:19.629Z,4.73
2018-11-29T09:22:22.838Z,4.92
2018-11-29T09:27:26.047Z,4.53
2018-11-29T09:32:29.264Z,4.10
2018-11-29T09:37:32.429Z,4.27
2018-11-29T09:42:35.586Z,4.50
2018-11-29T09:47:38.886Z,4.20
2018-11-29T09:52:42.225Z,4.57
2018-11-29T09:57:46.119Z,3.83
2018-11-29T10:03:01.778Z,4.20
2018-11-29T10:08:11.565Z,3.57
2018-11-29T10:13:09.070Z,3.33
2018-11-29T10:18:12.434Z,3.42
2018-11-29T10:23:15.600Z,3.70
2018-11-29T10:28:18.790Z,3.25
2018-11-29T10:33:21.999Z,3.73
2018-11-29T10:38:25.214Z,3.70
2018-11-29T10:43:28.425Z,3.27
2018-11-29T10:48:31.626Z,3.53
2018-11-29T10:53:37.745Z,3.40
2018-11-29T10:58:38.138Z,3.50
2018-11-29T11:03:41.350Z,3.60
2018-11-29T11:08:44.567Z,3.63
2018-11-29T11:13:47.761Z,3.50
2018-11-29T11:18:50.980Z,3.23
2018-11-29T11:23:59.345Z,3.63
2018-11-29T11:28:57.390Z,3.10
2018-11-29T11:34:00.542Z,3.30
2018-11-29T11:39:06.670Z,3.53
2018-11-29T11:44:09.882Z,3.03
2018-11-29T11:49:13.098Z,2.83
2018-11-29T11:54:16.307Z,2.80
2018-11-29T11:59:19.513Z,2.80
2018-11-29T12:04:22.725Z,2.85
2018-11-29T12:09:25.925Z,2.57
2018-11-29T12:14:29.134Z,2.70
2018-11-29T12:19:32.348Z,3.03
2018-11-29T12:24:35.559Z,2.67
2018-11-29T12:29:38.718Z,3.42
2018-11-29T12:34:41.874Z,2.67
2018-11-29T12:39:45.082Z,2.70
2018-11-29T12:44:48.291Z,2.40
2018-11-29T12:49:51.498Z,2.25
2018-11-29T12:54:54.708Z,2.87
2018-11-29T12:59:57.912Z,2.47
2018-11-29T13:05:01.137Z,2.47
2018-11-29T13:10:04.566Z,2.90
2018-11-29T13:15:11.570Z,2.57
2018-11-29T13:20:16.590Z,2.43
2018-11-29T13:25:20.626Z,2.70
2018-11-29T13:30:24.068Z,2.67
2018-11-29T13:35:31.129Z,2.60
2018-11-29T13:40:34.339Z,2.42
2018-11-29T13:45:37.540Z,2.40
2018-11-29T13:50:40.790Z,2.60
2018-11-29T13:55:43.967Z,2.70
2018-11-29T14:00:47.166Z,3.47
2018-11-29T14:05:50.374Z,3.03
2018-11-29T14:10:53.598Z,2.90
2018-11-29T14:15:56.825Z,2.77
2018-11-29T14:21:00.005Z,3.17
2018-11-29T14:26:03.210Z,2.70
2018-11-29T14:31:06.425Z,2.40
2018-11-29T14:36:09.627Z,2.43
2018-11-29T14:41:12.842Z,2.87
2018-11-29T14:46:17.246Z,2.67
2018-11-29T14:51:19.261Z,2.90
2018-11-29T14:56:22.449Z,2.60
2018-11-29T15:01:25.675Z,2.80
2018-11-29T15:06:28.905Z,2.55
2018-11-29T15:11:32.098Z,2.37
2018-11-29T15:16:35.262Z,2.50
2018-11-29T15:21:38.446Z,2.70
2018-11-29T15:26:41.707Z,3.23
2018-11-29T15:31:44.930Z,2.53
2018-11-29T15:36:48.086Z,2.43
2018-11-29T15:41:51.246Z,2.20
2018-11-29T15:46:54.461Z,2.25
2018-11-29T15:51:57.655Z,2.85
2018-11-29T15:57:00.854Z,2.43
2018-11-29T16:02:04.081Z,2.20
2018-11-29T16:07:07.285Z,2.90
2018-11-29T16:12:10.486Z,2.90
2018-11-29T16:17:13.702Z,2.50
2018-11-29T16:22:16.903Z,2.27
2018-11-29T16:27:20.106Z,2.70
2018-11-29T16:32:23.319Z,2.47
2018-11-29T16:37:26.531Z,2.73
2018-11-29T16:42:29.734Z,2.63
2018-11-29T16:47:32.946Z,2.33
2018-11-29T16:52:36.165Z,2.27
2018-11-29T16:57:40.658Z,2.77
2018-11-29T17:02:43.899Z,2.77
2018-11-29T17:07:47.326Z,3.10
2018-11-29T17:12:55.249Z,2.60
2018-11-29T17:17:58.437Z,3.60
2018-11-29T17:23:01.645Z,3.53
2018-11-29T17:28:04.909Z,3.60
2018-11-29T17:33:09.094Z,3.60
2018-11-29T17:38:12.304Z,3.43
2018-11-29T17:43:15.510Z,3.22
2018-11-29T17:48:18.718Z,3.70
2018-11-29T17:53:21.925Z,3.73
2018-11-29T17:58:25.086Z,4.40
2018-11-29T18:03:28.246Z,4.40
2018-11-29T18:08:31.466Z,4.10
2018-11-29T18:13:36.095Z,3.80
2018-11-29T18:18:39.302Z,4.00
2018-11-29T18:23:46.871Z,4.10
2018-11-29T18:28:45.721Z,3.77
2018-11-29T18:33:48.878Z,3.40
2018-11-29T18:38:52.046Z,3.53
2018-11-29T18:43:55.221Z,3.58
2018-11-29T18:48:58.462Z,3.00
2018-11-29T18:54:03.542Z,3.20
2018-11-29T18:59:06.726Z,3.43
2018-11-29T19:04:09.926Z,3.77
2018-11-29T19:09:13.550Z,3.60
2018-11-29T19:14:16.758Z,3.50
2018-11-29T19:19:21.576Z,3.92
2018-11-29T19:24:24.745Z,3.00
2018-11-29T19:29:27.911Z,3.63
2018-11-29T19:34:31.123Z,3.20
2018-11-29T19:39:34.277Z,2.90
2018-11-29T19:44:38.272Z,2.83
2018-11-29T19:49:41.458Z,3.45
2018-11-29T19:54:44.786Z,3.03
2018-11-29T19:59:47.978Z,3.40
2018-11-29T20:04:51.195Z,3.50
2018-11-29T20:09:54.394Z,3.30
2018-11-29T20:14:57.610Z,3.60
2018-11-29T20:20:09.725Z,3.63
2018-11-29T20:25:14.117Z,3.97
2018-11-29T20:30:20.291Z,3.07
2018-11-29T20:35:23.578Z,3.10
2018-11-29T20:40:28.629Z,3.52
2018-11-29T20:45:34.379Z,2.97
2018-11-29T20:50:37.590Z,3.58
2018-11-29T20:55:40.811Z,3.40
2018-11-29T21:00:43.982Z,3.10
2018-11-29T21:05:47.218Z,3.40
2018-11-29T21:10:50.430Z,3.03
2018-11-29T21:15:53.683Z,3.17
2018-11-29T21:20:56.966Z,3.23
2018-11-29T21:26:00.166Z,3.07
2018-11-29T21:31:03.369Z,2.90
2018-11-29T21:36:06.577Z,2.77
2018-11-29T21:41:09.805Z,2.87
2018-11-29T21:46:12.979Z,3.03
2018-11-29T21:51:17.866Z,3.17
2018-11-29T21:56:21.150Z,3.27
2018-11-29T22:01:24.345Z,2.62
2018-11-29T22:06:29.446Z,3.07
2018-11-29T22:11:32.610Z,3.08
2018-11-29T22:16:35.817Z,2.92
2018-11-29T22:21:40.393Z,2.80
2018-11-29T22:26:43.553Z,2.63
2018-11-29T22:31:46.763Z,2.92
2018-11-29T22:36:49.977Z,2.40
2018-11-29T22:41:53.169Z,2.73
2018-11-29T22:46:56.393Z,2.43
2018-11-29T22:51:59.617Z,2.47
2018-11-29T22:57:02.801Z,3.37
2018-11-29T23:02:06.433Z,2.70
2018-11-29T23:07:09.636Z,2.62
2018-11-29T23:12:12.855Z,2.43
2018-11-29T23:17:16.048Z,2.98
2018-11-29T23:22:19.263Z,3.30
2018-11-29T23:27:22.483Z,2.52
2018-11-29T23:32:25.698Z,2.30
2018-11-29T23:37:28.858Z,2.80
2018-11-29T23:42:32.102Z,2.80
2018-11-29T23:47:35.529Z,2.40
2018-11-29T23:52:38.686Z,2.17
2018-11-29T23:57:41.926Z,2.83
